This is the latest recevied weather packets stored in our database for station/object AF1E. If no packets are shown the sender has not sent any weather packets the latest 10 day(s).
| Time | Temp. | Humidity | Pressure | Rain* | Wind** | Luminosity | Snow |
|---|---|---|---|---|---|---|---|
| 1777668316 | 19.44° C | 49% | 1010 hPa | 0 mm | - | - | - |
| 1777667716 | 20° C | 47% | 1010 hPa | 0 mm | - | - | - |
| 1777654517 | 19.44° C | 46% | 1013.1 hPa | 0 mm | - | - | - |
| 1777653316 | 18.33° C | 44% | 1013.2 hPa | 0 mm | - | - | - |
| 1777646736 | 14.44° C | 50% | 1014 hPa | 0 mm | - | - | - |
| 1777639516 | 11.67° C | 62% | 1014.1 hPa | 0 mm | - | - | - |
| 1777637736 | 11.11° C | 63% | 1014.1 hPa | 0 mm | - | - | - |
| 1777634116 | 10° C | 64% | 1013.8 hPa | 0 mm | - | - | - |
| 1777631715 | 10° C | 65% | 1013.5 hPa | 0 mm | - | - | - |
| 1777631116 | 10° C | 64% | 1013.5 hPa | 0 mm | - | - | - |
| 1777629918 | 10.56° C | 64% | 1013.4 hPa | 0 mm | - | - | - |
| 1777625158 | 10.56° C | 66% | 1012.6 hPa | 0 mm | - | - | - |
| 1777622717 | 10.56° C | 67% | 1012.6 hPa | 0 mm | - | - | - |
| 1777620318 | 10.56° C | 67% | 1012.4 hPa | 0 mm | - | - | - |
| 1777619718 | 10.56° C | 67% | 1012.5 hPa | 0 mm | - | - | - |
| 1777617317 | 11.11° C | 61% | 1012.3 hPa | 0 mm | - | - | - |
| 1777613717 | 11.11° C | 59% | 1012.4 hPa | 0 mm | - | - | - |
| 1777608317 | 11.67° C | 56% | 1011.8 hPa | 0 mm | - | - | - |
| 1777602917 | 14.44° C | 47% | 1011.5 hPa | 0 mm | - | - | - |
| 1777583716 | 21.67° C | 32% | 1008 hPa | 0 mm | - | - | - |
| 1777581957 | 22.22° C | 35% | 1007.7 hPa | 0 mm | - | - | - |
| 1777578916 | 23.89° C | 37% | 1007.7 hPa | 0 mm | - | - | - |
| 1777577117 | 24.44° C | 36% | 1007.8 hPa | 0 mm | - | - | - |
| 1777567516 | 21.11° C | 55% | 1008.8 hPa | 0 mm | - | - | - |
| 1777566916 | 21.11° C | 54% | 1008.8 hPa | 0 mm | - | - | - |
* Rain latest hour (hover to see other rain measurements)
** Current wind speed in m/s (hover to see current wind gust speed)